Time;durP1;ratioP1;P1;durP2;ratioP2;P2;SDS_P1;SDS_P2;PMS_P1;PMS_P2;Temp;Humidity;BMP_temperature;BMP_pressure;BME280_temperature;BME280_humidity;BME280_pressure;Samples;Min_cycle;Max_cycle;Signal;HPM_P1;HPM_P2
2024/02/12 00:00:18;;;;;;;21.80;5.00;;;;;;;;;;5094193;28;20020;-38
2024/02/12 00:02:49;;;;;;;20.00;4.40;;;;;;;;;;5093889;28;20024;-38
2024/02/12 00:05:16;;;;;;;17.88;4.07;;;;;;;;;;5096465;28;20035;-38
2024/02/12 00:07:44;;;;;;;24.35;3.72;;;;;;;;;;5103537;28;20042;-38
2024/02/12 00:10:12;;;;;;;18.63;3.80;;;;;;;;;;5097736;28;20028;-38
2024/02/12 00:12:42;;;;;;;17.23;3.40;;;;;;;;;;5093608;28;20059;-39
2024/02/12 00:15:12;;;;;;;22.23;3.50;;;;;;;;;;5096837;28;20082;-40
2024/02/12 00:17:42;;;;;;;13.25;3.58;;;;;;;;;;5098096;28;20046;-39
2024/02/12 00:20:12;;;;;;;19.75;2.80;;;;;;;;;;5090291;28;20028;-39
2024/02/12 00:22:42;;;;;;;17.15;2.90;;;;;;;;;;5095405;28;20505;-40
2024/02/12 00:25:14;;;;;;;17.85;2.97;;;;;;;;;;5097651;28;20099;-39
2024/02/12 00:27:41;;;;;;;;;;;;;;;;;;5095903;28;20482;-39
2024/02/12 00:30:12;;;;;;;10.15;2.70;;;;;;;;;;5102812;28;19951;-39
2024/02/12 00:32:39;;;;;;;14.40;3.33;;;;;;;;;;5101000;28;20107;-40
2024/02/12 00:35:06;;;;;;;18.63;3.80;;;;;;;;;;5102690;28;20035;-41
2024/02/12 00:37:36;;;;;;;20.75;6.22;;;;;;;;;;5099993;28;20024;-41
2024/02/12 00:40:11;;;;;;;18.70;6.68;;;;;;;;;;5111205;28;20023;-40
2024/02/12 00:42:39;;;;;;;21.60;7.57;;;;;;;;;;5091567;28;20032;-39
2024/02/12 00:45:10;;;;;;;15.30;4.57;;;;;;;;;;5098963;28;20034;-39
2024/02/12 00:47:38;;;;;;;15.10;3.72;;;;;;;;;;5097035;28;20112;-40
2024/02/12 00:50:08;;;;;;;6.85;2.40;;;;;;;;;;5104216;28;20036;-39
2024/02/12 00:52:38;;;;;;;7.85;2.00;;;;;;;;;;5098704;28;20035;-41
2024/02/12 00:55:06;;;;;;;9.73;1.95;;;;;;;;;;5096843;28;20057;-39
2024/02/12 00:57:36;;;;;;;2.95;1.70;;;;;;;;;;5100893;28;20107;-39
2024/02/12 01:00:12;;;;;;;4.32;1.48;;;;;;;;;;5101931;28;20467;-38
2024/02/12 01:02:42;;;;;;;10.07;2.20;;;;;;;;;;5098767;28;20036;-38
2024/02/12 01:05:10;;;;;;;13.85;3.80;;;;;;;;;;5104360;28;20642;-39
2024/02/12 01:07:37;;;;;;;17.60;4.65;;;;;;;;;;5102512;28;20023;-38
2024/02/12 01:10:05;;;;;;;14.10;5.00;;;;;;;;;;5103503;28;20040;-38
2024/02/12 01:12:32;;;;;;;14.75;4.70;;;;;;;;;;5095890;28;20048;-38
2024/02/12 01:15:01;;;;;;;9.98;4.13;;;;;;;;;;5097350;28;20032;-39
2024/02/12 01:17:29;;;;;;;14.48;4.07;;;;;;;;;;5099455;28;20114;-38
2024/02/12 01:19:59;;;;;;;10.13;2.30;;;;;;;;;;5099727;28;20039;-38
2024/02/12 01:22:26;;;;;;;10.68;2.33;;;;;;;;;;5104616;28;20115;-38
2024/02/12 01:24:54;;;;;;;9.32;2.17;;;;;;;;;;5098789;28;20482;-38
2024/02/12 01:27:23;;;;;;;5.53;1.42;;;;;;;;;;5102896;28;20401;-38
2024/02/12 01:29:50;;;;;;;8.45;1.25;;;;;;;;;;5105755;28;20038;-38
2024/02/12 01:32:17;;;;;;;7.10;1.83;;;;;;;;;;5106349;28;20573;-38
2024/02/12 01:34:44;;;;;;;6.88;1.52;;;;;;;;;;5095409;28;20057;-38
2024/02/12 01:37:11;;;;;;;5.85;1.40;;;;;;;;;;5107855;28;20043;-38
2024/02/12 01:39:39;;;;;;;3.78;1.42;;;;;;;;;;5100061;28;20478;-37
2024/02/12 01:42:15;;;;;;;4.20;1.40;;;;;;;;;;5101376;28;20023;-40
2024/02/12 01:45:02;;;;;;;6.53;1.40;;;;;;;;;;5101019;28;20035;-39
2024/02/12 01:47:33;;;;;;;7.10;1.70;;;;;;;;;;5102860;28;20023;-39
2024/02/12 01:50:02;;;;;;;8.90;2.10;;;;;;;;;;5099976;28;20028;-39
2024/02/12 01:52:29;;;;;;;7.72;2.05;;;;;;;;;;5099313;28;20039;-39
2024/02/12 01:54:58;;;;;;;9.50;2.47;;;;;;;;;;5109752;28;20035;-39
2024/02/12 01:57:25;;;;;;;10.38;2.45;;;;;;;;;;5113574;28;20077;-39
2024/02/12 01:59:52;;;;;;;8.70;2.33;;;;;;;;;;5107125;28;20490;-39
2024/02/12 02:02:20;;;;;;;12.57;2.90;;;;;;;;;;5099150;28;20482;-39
2024/02/12 02:04:47;;;;;;;12.82;2.20;;;;;;;;;;5106557;28;20036;-39
2024/02/12 02:07:21;;;;;;;7.05;2.10;;;;;;;;;;5097266;28;20054;-39
2024/02/12 02:09:51;;;;;;;12.15;2.63;;;;;;;;;;5105846;28;20035;-39
2024/02/12 02:12:18;;;;;;;7.15;2.45;;;;;;;;;;5099852;28;20417;-39
2024/02/12 02:14:45;;;;;;;8.63;2.50;;;;;;;;;;5108073;28;20115;-39
2024/02/12 02:17:14;;;;;;;8.65;2.45;;;;;;;;;;5092000;28;20375;-40
2024/02/12 02:19:42;;;;;;;6.40;2.42;;;;;;;;;;5099619;28;20762;-39
2024/02/12 02:22:16;;;;;;;6.20;2.20;;;;;;;;;;5098870;28;20035;-42
2024/02/12 02:24:45;;;;;;;4.95;1.70;;;;;;;;;;5101826;28;20386;-40
2024/02/12 02:27:12;;;;;;;7.35;1.90;;;;;;;;;;5104008;28;20024;-39
2024/02/12 02:29:40;;;;;;;6.55;1.75;;;;;;;;;;5099596;28;20028;-39
2024/02/12 02:32:07;;;;;;;5.68;1.70;;;;;;;;;;5100219;28;20054;-39
2024/02/12 02:34:34;;;;;;;3.10;1.42;;;;;;;;;;5106558;28;20085;-39
2024/02/12 02:37:01;;;;;;;5.47;1.75;;;;;;;;;;5108996;28;20028;-39
2024/02/12 02:39:29;;;;;;;8.18;1.63;;;;;;;;;;5103683;28;20379;-38
2024/02/12 02:41:57;;;;;;;5.88;1.60;;;;;;;;;;5091879;28;20060;-38
2024/02/12 02:44:24;;;;;;;4.47;1.55;;;;;;;;;;5102799;28;20093;-39
2024/02/12 02:46:51;;;;;;;7.75;1.95;;;;;;;;;;5096772;28;20059;-40
2024/02/12 02:49:18;;;;;;;3.70;1.58;;;;;;;;;;5093972;28;20034;-39
2024/02/12 02:51:45;;;;;;;5.57;1.33;;;;;;;;;;5094248;28;20031;-40
2024/02/12 02:54:13;;;;;;;6.32;1.83;;;;;;;;;;5092911;28;20047;-38
2024/02/12 02:56:40;;;;;;;6.85;2.28;;;;;;;;;;5096314;28;20023;-39
2024/02/12 02:59:09;;;;;;;5.22;1.73;;;;;;;;;;5095158;28;20551;-39
2024/02/12 03:01:36;;;;;;;6.35;1.90;;;;;;;;;;5097803;28;20028;-39
2024/02/12 03:04:03;;;;;;;8.10;2.53;;;;;;;;;;5095970;28;20042;-39
2024/02/12 03:06:30;;;;;;;5.45;1.90;;;;;;;;;;5102645;28;20075;-40
2024/02/12 03:08:58;;;;;;;5.22;1.90;;;;;;;;;;5102035;28;20031;-39
2024/02/12 03:11:26;;;;;;;6.53;2.03;;;;;;;;;;5112327;28;20614;-40
2024/02/12 03:13:55;;;;;;;8.07;1.80;;;;;;;;;;5113085;28;20383;-40
2024/02/12 03:16:22;;;;;;;6.70;1.88;;;;;;;;;;5111546;28;20085;-40
2024/02/12 03:18:51;;;;;;;5.97;1.70;;;;;;;;;;5113003;28;20038;-40
2024/02/12 03:21:22;;;;;;;4.88;1.58;;;;;;;;;;5112451;28;20039;-40
2024/02/12 03:23:49;;;;;;;8.32;1.92;;;;;;;;;;5112976;28;20385;-39
2024/02/12 03:26:16;;;;;;;5.78;1.85;;;;;;;;;;5112242;28;20055;-39
2024/02/12 03:28:44;;;;;;;5.13;1.52;;;;;;;;;;5112488;28;20036;-39
2024/02/12 03:31:11;;;;;;;7.60;1.88;;;;;;;;;;5099290;28;20027;-37
2024/02/12 03:33:42;;;;;;;8.40;1.80;;;;;;;;;;5112314;27;20486;-38
2024/02/12 03:36:09;;;;;;;7.78;1.75;;;;;;;;;;5112482;28;20043;-37
2024/02/12 03:38:36;;;;;;;6.88;1.67;;;;;;;;;;5102587;27;20034;-37
2024/02/12 03:41:04;;;;;;;5.53;1.40;;;;;;;;;;5112200;28;20106;-37
2024/02/12 03:43:31;;;;;;;7.53;1.42;;;;;;;;;;5112442;28;20469;-37
2024/02/12 03:45:59;;;;;;;4.05;1.65;;;;;;;;;;5105958;28;20019;-37
2024/02/12 04:02:13;;;;;;;3.08;1.30;;;;;;;;;;5091973;28;20574;-37
2024/02/12 04:04:42;;;;;;;6.38;1.90;;;;;;;;;;5091948;28;20035;-38
2024/02/12 04:07:09;;;;;;;5.63;1.70;;;;;;;;;;5091703;28;20031;-39
2024/02/12 04:09:41;;;;;;;6.60;2.20;;;;;;;;;;5091736;28;20028;-38
2024/02/12 04:12:11;;;;;;;5.63;2.15;;;;;;;;;;5091666;28;20054;-38
2024/02/12 04:14:42;;;;;;;4.63;1.90;;;;;;;;;;5091652;28;20055;-37
2024/02/12 04:17:10;;;;;;;6.55;2.30;;;;;;;;;;5093550;28;20391;-37
2024/02/12 04:19:38;;;;;;;4.35;1.50;;;;;;;;;;5104920;28;20031;-37
2024/02/12 04:22:09;;;;;;;4.35;1.98;;;;;;;;;;5112122;28;20039;-38
2024/02/12 04:24:43;;;;;;;5.05;1.70;;;;;;;;;;5103273;28;20069;-38
2024/02/12 04:27:10;;;;;;;7.40;1.92;;;;;;;;;;5091572;28;20115;-38
2024/02/12 04:29:39;;;;;;;5.32;1.77;;;;;;;;;;5091537;28;20027;-38
2024/02/12 04:32:14;;;;;;;4.65;1.70;;;;;;;;;;5091574;28;20039;-37
2024/02/12 04:34:41;;;;;;;6.47;1.80;;;;;;;;;;5091559;28;20382;-39
2024/02/12 04:37:10;;;;;;;5.88;1.90;;;;;;;;;;5091485;28;20031;-39
2024/02/12 04:39:38;;;;;;;4.40;1.60;;;;;;;;;;5091463;28;20028;-39
2024/02/12 04:42:05;;;;;;;5.63;1.50;;;;;;;;;;5091438;28;20036;-39
2024/02/12 04:44:32;;;;;;;4.72;1.60;;;;;;;;;;5091501;28;20087;-39
2024/02/12 04:47:00;;;;;;;4.22;1.40;;;;;;;;;;5091482;28;20035;-39
2024/02/12 04:49:28;;;;;;;4.35;1.77;;;;;;;;;;5095024;28;20059;-38
2024/02/12 04:51:56;;;;;;;6.38;1.88;;;;;;;;;;5096178;28;20028;-39
2024/02/12 04:54:23;;;;;;;4.47;1.98;;;;;;;;;;5091328;28;20036;-38
2024/02/12 04:56:50;;;;;;;6.30;2.00;;;;;;;;;;5091255;28;20513;-39
2024/02/12 04:59:22;;;;;;;4.78;2.10;;;;;;;;;;5090080;28;20379;-38
2024/02/12 05:01:49;;;;;;;6.47;2.28;;;;;;;;;;5091067;28;20028;-39
2024/02/12 05:04:19;;;;;;;6.32;2.10;;;;;;;;;;5110344;28;20027;-38
2024/02/12 05:06:46;;;;;;;9.35;2.25;;;;;;;;;;5115398;28;20477;-39
2024/02/12 05:09:14;;;;;;;6.18;2.00;;;;;;;;;;5115793;28;20031;-38
2024/02/12 05:11:41;;;;;;;9.60;1.70;;;;;;;;;;5115579;27;20426;-38
2024/02/12 05:14:08;;;;;;;4.07;1.40;;;;;;;;;;5115706;28;20042;-38
2024/02/12 05:16:35;;;;;;;7.82;1.80;;;;;;;;;;5115738;28;20031;-38
2024/02/12 05:24:38;;;;;;;5.80;1.48;;;;;;;;;;5115638;28;20564;-38
2024/02/12 05:27:05;;;;;;;2.75;1.17;;;;;;;;;;5115502;28;20042;-38
2024/02/12 05:29:32;;;;;;;3.67;1.60;;;;;;;;;;5115525;28;20532;-38
2024/02/12 05:31:59;;;;;;;4.03;1.60;;;;;;;;;;5115427;28;20031;-38
2024/02/12 05:34:26;;;;;;;3.00;1.40;;;;;;;;;;5115327;28;20030;-38
2024/02/12 05:36:53;;;;;;;3.20;1.50;;;;;;;;;;5115244;28;20397;-38
2024/02/12 05:39:21;;;;;;;3.85;1.67;;;;;;;;;;5115200;28;20024;-38
2024/02/12 05:41:48;;;;;;;4.72;1.60;;;;;;;;;;5113886;27;20042;-38
2024/02/12 05:44:16;;;;;;;3.58;1.50;;;;;;;;;;5115209;28;20028;-38
2024/02/12 05:46:44;;;;;;;4.05;1.13;;;;;;;;;;5115160;27;20024;-38
2024/02/12 05:49:15;;;;;;;3.67;1.58;;;;;;;;;;5114834;28;20036;-38
2024/02/12 05:51:45;;;;;;;4.95;1.83;;;;;;;;;;5115091;28;20490;-38
2024/02/12 05:54:13;;;;;;;8.32;2.00;;;;;;;;;;5115085;28;20489;-38
2024/02/12 05:56:39;;;;;;;2.28;1.50;;;;;;;;;;5114867;28;20042;-38
2024/02/12 05:59:08;;;;;;;4.88;1.75;;;;;;;;;;5114912;28;20079;-38
2024/02/12 06:01:35;;;;;;;5.47;1.85;;;;;;;;;;5112044;28;20027;-38
2024/02/12 06:04:02;;;;;;;3.22;1.40;;;;;;;;;;5106532;28;20046;-38
2024/02/12 06:06:30;;;;;;;3.88;1.70;;;;;;;;;;5094405;28;20036;-38
2024/02/12 06:08:56;;;;;;;4.30;1.48;;;;;;;;;;5094279;28;20470;-38
2024/02/12 06:11:23;;;;;;;3.30;1.60;;;;;;;;;;5099253;28;20089;-38
2024/02/12 06:13:51;;;;;;;3.90;1.63;;;;;;;;;;5113342;28;20039;-38
2024/02/12 06:16:18;;;;;;;4.30;1.70;;;;;;;;;;5113176;28;20046;-38
2024/02/12 06:18:46;;;;;;;6.22;1.73;;;;;;;;;;5114570;28;20106;-38
2024/02/12 06:21:13;;;;;;;5.20;1.83;;;;;;;;;;5114424;28;20031;-38
2024/02/12 06:23:40;;;;;;;3.28;1.40;;;;;;;;;;5098621;28;20171;-38
2024/02/12 06:26:07;;;;;;;7.00;1.73;;;;;;;;;;5094026;28;20103;-38
2024/02/12 06:28:35;;;;;;;6.70;1.80;;;;;;;;;;5095680;28;20051;-38
2024/02/12 06:31:02;;;;;;;5.43;1.63;;;;;;;;;;5100802;28;20027;-38
2024/02/12 06:33:29;;;;;;;3.45;1.40;;;;;;;;;;5093847;28;20024;-38
2024/02/12 06:36:01;;;;;;;4.68;1.63;;;;;;;;;;5093794;28;20028;-38
2024/02/12 06:38:28;;;;;;;3.75;1.63;;;;;;;;;;5093517;28;20032;-38
2024/02/12 06:40:56;;;;;;;7.57;2.00;;;;;;;;;;5093682;28;20020;-38
2024/02/12 06:43:23;;;;;;;3.28;1.50;;;;;;;;;;5093649;28;20089;-38
2024/02/12 06:45:50;;;;;;;6.72;1.95;;;;;;;;;;5093657;28;20028;-38
2024/02/12 06:48:17;;;;;;;4.45;1.73;;;;;;;;;;5093468;28;20031;-38
2024/02/12 06:50:44;;;;;;;6.35;1.80;;;;;;;;;;5093486;28;20028;-38
2024/02/12 06:53:11;;;;;;;7.68;1.40;;;;;;;;;;5093462;28;20028;-38
2024/02/12 06:55:38;;;;;;;3.90;1.98;;;;;;;;;;5093516;28;20031;-38
2024/02/12 06:58:05;;;;;;;8.02;2.05;;;;;;;;;;5093298;28;20459;-38
2024/02/12 07:00:32;;;;;;;5.18;1.80;;;;;;;;;;5093413;28;20028;-38
2024/02/12 07:02:59;;;;;;;4.68;2.00;;;;;;;;;;5092119;28;20493;-38
2024/02/12 07:05:26;;;;;;;7.35;2.30;;;;;;;;;;5093396;28;20024;-38
2024/02/12 07:07:55;;;;;;;5.40;2.22;;;;;;;;;;5093242;28;20044;-38
2024/02/12 07:10:27;;;;;;;6.30;2.30;;;;;;;;;;5093187;28;20032;-38
2024/02/12 07:12:54;;;;;;;5.40;2.30;;;;;;;;;;5092899;28;20055;-38
2024/02/12 07:15:21;;;;;;;5.30;2.20;;;;;;;;;;5093201;28;20032;-38
2024/02/12 07:17:48;;;;;;;4.65;2.03;;;;;;;;;;5092952;28;20078;-38
2024/02/12 07:20:15;;;;;;;3.90;1.80;;;;;;;;;;5093102;28;20099;-38
2024/02/12 07:22:43;;;;;;;4.95;2.10;;;;;;;;;;5092668;28;20024;-38
2024/02/12 07:25:10;;;;;;;3.47;2.13;;;;;;;;;;5111900;28;20063;-38
2024/02/12 07:27:37;;;;;;;5.63;2.22;;;;;;;;;;5112635;28;20385;-38
2024/02/12 07:30:07;;;;;;;6.13;2.20;;;;;;;;;;5106659;28;20032;-38
2024/02/12 07:32:38;;;;;;;3.53;1.80;;;;;;;;;;5093094;28;20055;-38
2024/02/12 07:35:11;;;;;;;4.32;2.00;;;;;;;;;;5092656;28;20111;-38
2024/02/12 07:37:38;;;;;;;5.85;2.00;;;;;;;;;;5096965;28;20039;-38
2024/02/12 07:40:10;;;;;;;9.18;2.08;;;;;;;;;;5093236;28;20580;-38
2024/02/12 07:42:38;;;;;;;3.88;1.83;;;;;;;;;;5092556;28;20031;-38
2024/02/12 07:45:07;;;;;;;4.28;2.05;;;;;;;;;;5092511;28;20024;-38
2024/02/12 07:47:37;;;;;;;4.80;2.00;;;;;;;;;;5092423;28;20031;-38
2024/02/12 07:50:07;;;;;;;2.63;1.80;;;;;;;;;;5092469;28;20050;-38
2024/02/12 07:52:34;;;;;;;3.58;1.85;;;;;;;;;;5092427;28;20016;-38
2024/02/12 07:55:01;;;;;;;6.63;2.10;;;;;;;;;;5092091;28;20028;-38
2024/02/12 07:57:28;;;;;;;4.18;2.10;;;;;;;;;;5092231;28;20024;-38
2024/02/12 07:59:59;;;;;;;4.95;1.90;;;;;;;;;;5092323;28;20020;-38
2024/02/12 08:02:26;;;;;;;3.10;1.83;;;;;;;;;;5092210;28;20028;-38
2024/02/12 08:04:54;;;;;;;5.10;2.05;;;;;;;;;;5092108;28;20494;-38
2024/02/12 08:07:21;;;;;;;7.95;2.10;;;;;;;;;;5092078;28;20028;-38
2024/02/12 08:09:48;;;;;;;3.08;1.90;;;;;;;;;;5092003;28;20364;-38
2024/02/12 08:12:18;;;;;;;6.03;1.85;;;;;;;;;;5091828;28;20122;-38
2024/02/12 08:14:45;;;;;;;3.78;2.10;;;;;;;;;;5091799;28;20063;-38
2024/02/12 08:17:17;;;;;;;9.68;1.98;;;;;;;;;;5091826;28;20055;-37
2024/02/12 08:19:45;;;;;;;6.75;2.00;;;;;;;;;;5091986;28;20024;-38
2024/02/12 08:22:12;;;;;;;3.58;1.77;;;;;;;;;;5091899;28;20059;-38
2024/02/12 08:24:39;;;;;;;3.97;1.77;;;;;;;;;;5091932;28;20497;-38
2024/02/12 08:27:07;;;;;;;5.65;1.88;;;;;;;;;;5091761;28;20089;-38
2024/02/12 08:29:35;;;;;;;5.93;1.92;;;;;;;;;;5092035;28;20028;-38
2024/02/12 08:32:03;;;;;;;4.25;2.00;;;;;;;;;;5112056;28;20085;-38
2024/02/12 08:34:31;;;;;;;3.47;1.80;;;;;;;;;;5112070;28;20046;-38
2024/02/12 08:36:58;;;;;;;4.45;2.00;;;;;;;;;;5112092;28;20028;-38
2024/02/12 08:39:25;;;;;;;4.22;1.77;;;;;;;;;;5111237;28;20470;-38
2024/02/12 08:41:52;;;;;;;2.85;1.73;;;;;;;;;;5112083;28;20051;-38
2024/02/12 08:44:19;;;;;;;5.00;1.83;;;;;;;;;;5112023;28;20047;-38
2024/02/12 08:46:46;;;;;;;2.75;1.60;;;;;;;;;;5112008;28;20066;-38
2024/02/12 08:49:14;;;;;;;3.30;1.45;;;;;;;;;;5112052;28;20433;-38
2024/02/12 08:51:42;;;;;;;6.10;1.75;;;;;;;;;;5111765;28;20027;-38
2024/02/12 08:54:09;;;;;;;1.95;1.40;;;;;;;;;;5111937;28;20032;-38
2024/02/12 08:56:41;;;;;;;2.45;1.20;;;;;;;;;;5111954;28;20020;-38
2024/02/12 08:59:08;;;;;;;2.78;1.30;;;;;;;;;;5111823;28;20020;-38
2024/02/12 09:01:36;;;;;;;3.00;1.50;;;;;;;;;;5111924;28;20022;-38
2024/02/12 09:04:03;;;;;;;2.47;1.55;;;;;;;;;;5111762;28;20027;-38
2024/02/12 09:06:32;;;;;;;4.22;1.63;;;;;;;;;;5111840;28;20024;-38
2024/02/12 09:08:58;;;;;;;5.25;1.70;;;;;;;;;;5111743;28;20036;-38
2024/02/12 09:11:26;;;;;;;2.38;1.65;;;;;;;;;;5111688;28;20092;-38
2024/02/12 09:13:53;;;;;;;2.17;1.33;;;;;;;;;;5111668;28;20044;-38
2024/02/12 09:16:21;;;;;;;5.20;1.73;;;;;;;;;;5111701;28;20031;-38
2024/02/12 09:18:48;;;;;;;4.53;1.58;;;;;;;;;;5111775;28;20115;-38
2024/02/12 09:21:15;;;;;;;6.32;1.50;;;;;;;;;;5111664;28;20019;-38
2024/02/12 09:23:42;;;;;;;4.53;1.58;;;;;;;;;;5111637;28;20027;-38
2024/02/12 09:26:09;;;;;;;5.97;1.60;;;;;;;;;;5111583;28;20039;-38
2024/02/12 09:28:38;;;;;;;4.88;1.73;;;;;;;;;;5111568;28;20492;-38
2024/02/12 09:31:05;;;;;;;3.67;1.70;;;;;;;;;;5111517;28;20058;-38
2024/02/12 09:33:32;;;;;;;4.38;2.15;;;;;;;;;;5111508;28;20043;-38
2024/02/12 09:35:59;;;;;;;5.80;2.45;;;;;;;;;;5110217;28;20478;-38
2024/02/12 09:38:27;;;;;;;6.22;2.35;;;;;;;;;;5111565;28;20016;-38
2024/02/12 09:40:54;;;;;;;4.43;1.60;;;;;;;;;;5111476;28;20039;-38
2024/02/12 09:43:22;;;;;;;4.10;1.30;;;;;;;;;;5111441;28;20499;-38
2024/02/12 09:45:51;;;;;;;4.43;1.20;;;;;;;;;;5111414;28;20020;-38
2024/02/12 09:48:20;;;;;;;6.00;1.40;;;;;;;;;;5111346;28;20034;-38
2024/02/12 09:50:50;;;;;;;2.65;1.20;;;;;;;;;;5114359;28;20073;-38
2024/02/12 09:53:21;;;;;;;4.13;1.33;;;;;;;;;;5114979;28;20035;-38
2024/02/12 09:55:48;;;;;;;3.20;0.90;;;;;;;;;;5115111;28;20473;-38
2024/02/12 09:58:15;;;;;;;3.97;1.15;;;;;;;;;;5114910;28;20038;-38
2024/02/12 10:00:46;;;;;;;5.20;1.13;;;;;;;;;;5114996;28;20409;-38
2024/02/12 10:03:13;;;;;;;3.30;1.00;;;;;;;;;;5114874;28;20445;-38
2024/02/12 10:05:43;;;;;;;3.50;1.05;;;;;;;;;;5114964;28;20034;-38
2024/02/12 10:08:20;;;;;;;7.53;1.30;;;;;;;;;;5114652;28;20493;-37
2024/02/12 10:10:48;;;;;;;7.22;1.20;;;;;;;;;;5114735;28;20030;-37
2024/02/12 10:13:15;;;;;;;8.13;1.63;;;;;;;;;;5114389;28;20054;-37
2024/02/12 10:15:43;;;;;;;20.20;2.08;;;;;;;;;;5114884;28;20057;-38
2024/02/12 10:18:12;;;;;;;32.72;2.97;;;;;;;;;;5101129;28;20035;-37
2024/02/12 10:20:39;;;;;;;24.63;3.97;;;;;;;;;;5114427;28;20119;-37
2024/02/12 10:23:10;;;;;;;51.63;5.60;;;;;;;;;;5113160;28;20034;-38
2024/02/12 10:25:42;;;;;;;62.75;6.75;;;;;;;;;;5114404;28;20110;-37
2024/02/12 10:28:09;;;;;;;;;;;;;;;;;;5114737;28;20062;-37
2024/02/12 10:30:37;;;;;;;96.70;12.30;;;;;;;;;;5114292;28;19904;-38
2024/02/12 10:33:07;;;;;;;132.73;14.48;;;;;;;;;;5114345;28;20024;-37
2024/02/12 10:35:46;;;;;;;151.48;16.95;;;;;;;;;;5100159;28;20047;-37
2024/02/12 10:38:17;;;;;;;127.00;16.90;;;;;;;;;;5093796;28;20089;-38
2024/02/12 10:40:44;;;;;;;167.15;18.55;;;;;;;;;;5093708;28;20523;-37
2024/02/12 10:43:16;;;;;;;195.45;22.80;;;;;;;;;;5097136;28;20023;-37
2024/02/12 10:45:49;;;;;;;165.55;20.98;;;;;;;;;;5104768;28;20028;-36
2024/02/12 10:48:17;;;;;;;216.30;25.02;;;;;;;;;;5098269;28;20019;-37
2024/02/12 10:50:48;;;;;;;216.07;25.83;;;;;;;;;;5103468;28;20347;-38
2024/02/12 10:53:17;;;;;;;224.23;26.95;;;;;;;;;;5101310;28;20407;-38
2024/02/12 10:55:45;;;;;;;224.43;25.05;;;;;;;;;;5096130;28;20580;-37
2024/02/12 10:58:16;;;;;;;232.07;26.02;;;;;;;;;;5111673;28;20132;-37
2024/02/12 11:00:55;;;;;;;203.38;25.67;;;;;;;;;;5113085;28;20079;-37
2024/02/12 11:03:38;;;;;;;216.60;25.02;;;;;;;;;;5094309;28;20103;-37
2024/02/12 11:06:11;;;;;;;214.60;27.02;;;;;;;;;;5100343;28;20104;-37
2024/02/12 11:08:41;;;;;;;224.63;26.15;;;;;;;;;;5103418;28;20024;-37
2024/02/12 11:11:22;;;;;;;203.02;24.20;;;;;;;;;;5100978;28;20023;-37
2024/02/12 11:13:53;;;;;;;195.73;24.75;;;;;;;;;;5100302;28;20070;-37
2024/02/12 11:16:21;;;;;;;219.73;24.95;;;;;;;;;;5094459;28;20486;-37
2024/02/12 11:19:01;;;;;;;178.00;24.20;;;;;;;;;;5099379;28;20113;-37
2024/02/12 11:21:35;;;;;;;205.55;22.88;;;;;;;;;;5103365;28;20038;-37
2024/02/12 11:24:07;;;;;;;198.43;24.50;;;;;;;;;;5101826;28;20482;-37
2024/02/12 11:26:37;;;;;;;218.52;24.58;;;;;;;;;;5101890;28;20485;-36
2024/02/12 11:29:05;;;;;;;227.13;26.08;;;;;;;;;;5103190;28;20036;-37
2024/02/12 11:31:41;;;;;;;201.25;24.27;;;;;;;;;;5102337;28;20019;-36
2024/02/12 11:34:17;;;;;;;170.20;22.83;;;;;;;;;;5101265;28;20040;-36
2024/02/12 11:36:48;;;;;;;186.25;24.00;;;;;;;;;;5102727;28;20037;-37
2024/02/12 11:39:16;;;;;;;199.10;22.65;;;;;;;;;;5101309;28;20093;-36
2024/02/12 11:41:47;;;;;;;177.35;23.75;;;;;;;;;;5101915;27;20039;-36
2024/02/12 11:44:15;;;;;;;169.48;21.50;;;;;;;;;;5103442;28;20019;-36
2024/02/12 11:46:42;;;;;;;174.98;21.95;;;;;;;;;;5102076;28;20103;-36
2024/02/12 11:49:09;;;;;;;172.48;20.70;;;;;;;;;;5101131;28;20396;-36
2024/02/12 11:51:40;;;;;;;180.60;21.88;;;;;;;;;;5097655;28;20038;-36
2024/02/12 11:54:13;;;;;;;161.50;20.08;;;;;;;;;;5092248;28;20074;-37
2024/02/12 11:56:40;;;;;;;175.05;21.42;;;;;;;;;;5092239;28;20032;-36
2024/02/12 11:59:07;;;;;;;228.02;24.33;;;;;;;;;;5092292;28;20486;-37
2024/02/12 12:01:35;;;;;;;183.80;23.30;;;;;;;;;;5092353;28;20055;-37
2024/02/12 12:04:02;;;;;;;159.25;21.35;;;;;;;;;;5092206;28;20032;-37
2024/02/12 12:06:34;;;;;;;173.13;21.80;;;;;;;;;;5091946;28;20494;-37
2024/02/12 12:09:02;;;;;;;186.68;20.80;;;;;;;;;;5092213;28;20028;-38
2024/02/12 12:11:29;;;;;;;155.93;20.90;;;;;;;;;;5090475;28;20048;-38
2024/02/12 12:13:59;;;;;;;161.88;20.88;;;;;;;;;;5091970;28;20028;-38
2024/02/12 12:16:27;;;;;;;173.98;19.85;;;;;;;;;;5091911;28;20446;-38
2024/02/12 12:18:54;;;;;;;175.18;21.35;;;;;;;;;;5091841;28;20304;-38
2024/02/12 12:24:32;;;;;;;136.43;18.67;;;;;;;;;;5093726;28;20436;-38
2024/02/12 12:30:17;;;;;;;152.40;15.50;;;;;;;;;;5093143;28;20090;-39
2024/02/12 12:32:44;;;;;;;121.55;14.93;;;;;;;;;;5091762;28;20077;-38
2024/02/12 12:35:11;;;;;;;117.00;15.88;;;;;;;;;;5091760;28;20036;-38
2024/02/12 12:37:41;;;;;;;114.43;15.60;;;;;;;;;;5091200;28;20036;-38
2024/02/12 12:40:18;;;;;;;108.03;14.77;;;;;;;;;;5100760;28;20077;-38
2024/02/12 12:42:49;;;;;;;105.13;14.38;;;;;;;;;;5112178;28;20397;-38
2024/02/12 12:45:17;;;;;;;103.90;13.65;;;;;;;;;;5112038;28;20031;-38
2024/02/12 12:47:44;;;;;;;101.07;13.80;;;;;;;;;;5112042;28;20027;-38
2024/02/12 12:50:13;;;;;;;87.70;12.35;;;;;;;;;;5112016;28;20570;-37
2024/02/12 12:52:41;;;;;;;100.35;12.80;;;;;;;;;;5102269;28;20035;-38
2024/02/12 12:55:08;;;;;;;91.07;13.20;;;;;;;;;;5091526;28;20566;-37
2024/02/12 12:57:35;;;;;;;88.82;12.93;;;;;;;;;;5091574;28;20034;-37
2024/02/12 13:00:15;;;;;;;102.57;12.82;;;;;;;;;;5091581;28;20048;-37
2024/02/12 13:02:46;;;;;;;106.15;12.25;;;;;;;;;;5091421;28;20086;-37
2024/02/12 13:05:13;;;;;;;89.35;11.82;;;;;;;;;;5096729;28;20036;-38
2024/02/12 13:07:41;;;;;;;81.35;9.82;;;;;;;;;;5100047;28;20031;-38
2024/02/12 13:10:09;;;;;;;78.47;10.07;;;;;;;;;;5100423;28;20481;-38
2024/02/12 13:12:38;;;;;;;77.32;11.05;;;;;;;;;;5096502;28;20059;-39
2024/02/12 13:15:11;;;;;;;78.18;10.63;;;;;;;;;;5091258;28;20375;-39
2024/02/12 13:17:38;;;;;;;77.03;11.45;;;;;;;;;;5110814;28;20045;-39
2024/02/12 13:20:29;;;;;;;73.95;10.57;;;;;;;;;;5111590;28;20036;-39
2024/02/12 13:22:57;;;;;;;65.15;9.98;;;;;;;;;;5099681;28;20035;-41
2024/02/12 13:25:29;;;;;;;80.38;10.52;;;;;;;;;;5106599;28;20031;-38
2024/02/12 13:28:00;;;;;;;66.13;10.20;;;;;;;;;;5110826;28;20563;-39
2024/02/12 13:30:29;;;;;;;74.45;10.32;;;;;;;;;;5114111;28;20517;-39
2024/02/12 13:33:04;;;;;;;61.92;9.32;;;;;;;;;;5106752;28;20027;-38
2024/02/12 13:35:35;;;;;;;63.38;9.55;;;;;;;;;;5107628;28;20169;-38
2024/02/12 13:38:03;;;;;;;60.08;9.48;;;;;;;;;;5107472;28;20027;-38
2024/02/12 13:40:30;;;;;;;63.15;9.35;;;;;;;;;;5105459;28;20107;-38
2024/02/12 13:42:57;;;;;;;48.60;7.88;;;;;;;;;;5100918;28;20039;-38
2024/02/12 13:45:24;;;;;;;53.20;8.93;;;;;;;;;;5097543;28;20032;-38
2024/02/12 13:47:53;;;;;;;62.58;8.27;;;;;;;;;;5112957;28;20031;-39
2024/02/12 13:50:20;;;;;;;203.93;23.77;;;;;;;;;;5115052;28;20505;-36
2024/02/12 13:52:47;;;;;;;140.05;15.32;;;;;;;;;;5114952;28;20055;-36
2024/02/12 13:55:14;;;;;;;90.50;13.13;;;;;;;;;;5113159;27;20035;-36
2024/02/12 13:57:43;;;;;;;103.40;12.20;;;;;;;;;;5111929;28;20602;-36
2024/02/12 14:00:21;;;;;;;97.40;12.40;;;;;;;;;;5104356;28;20393;-36
2024/02/12 14:02:49;;;;;;;81.97;11.30;;;;;;;;;;5113189;27;20513;-36
2024/02/12 14:05:20;;;;;;;69.45;11.57;;;;;;;;;;5114275;28;20046;-36
2024/02/12 14:07:47;;;;;;;68.50;10.38;;;;;;;;;;5114279;28;20031;-36
2024/02/12 14:10:18;;;;;;;66.82;10.38;;;;;;;;;;5114398;28;20038;-36
2024/02/12 14:12:45;;;;;;;73.00;10.15;;;;;;;;;;5112827;28;20071;-36
2024/02/12 14:15:13;;;;;;;62.47;9.90;;;;;;;;;;5114380;28;20515;-36
2024/02/12 14:17:43;;;;;;;146.70;29.90;;;;;;;;;;5114152;27;20039;-36
2024/02/12 14:20:20;;;;;;;278.02;55.83;;;;;;;;;;5114136;28;20418;-36
2024/02/12 14:22:48;;;;;;;148.07;27.38;;;;;;;;;;5105579;28;20054;-36
2024/02/12 14:25:15;;;;;;;135.35;24.90;;;;;;;;;;5102392;28;20555;-36
2024/02/12 14:27:43;;;;;;;119.00;20.48;;;;;;;;;;5097802;28;20028;-36
2024/02/12 14:30:17;;;;;;;81.05;15.73;;;;;;;;;;5099489;28;20428;-36
2024/02/12 14:32:45;;;;;;;86.90;16.88;;;;;;;;;;5098204;28;20040;-36
2024/02/12 14:35:14;;;;;;;76.35;13.90;;;;;;;;;;5098846;27;20042;-36
2024/02/12 14:37:42;;;;;;;66.15;12.30;;;;;;;;;;5108126;28;20130;-36
2024/02/12 14:40:11;;;;;;;49.63;10.23;;;;;;;;;;5114027;27;20039;-36
2024/02/12 14:42:39;;;;;;;52.63;10.60;;;;;;;;;;5113972;27;20044;-36
2024/02/12 14:45:08;;;;;;;58.78;9.70;;;;;;;;;;5113443;27;20028;-36
2024/02/12 14:47:36;;;;;;;46.67;8.80;;;;;;;;;;5112305;28;20427;-36
2024/02/12 14:50:03;;;;;;;56.88;8.95;;;;;;;;;;5113860;28;20061;-36
2024/02/12 14:52:32;;;;;;;42.42;8.02;;;;;;;;;;5113475;28;20039;-36
2024/02/12 14:54:59;;;;;;;47.88;8.73;;;;;;;;;;5109434;28;20057;-36
2024/02/12 14:57:26;;;;;;;54.75;8.38;;;;;;;;;;5099723;28;20385;-36
2024/02/12 14:59:53;;;;;;;51.25;9.02;;;;;;;;;;5112402;28;20038;-38
2024/02/12 15:02:22;;;;;;;46.92;8.75;;;;;;;;;;5093782;28;20077;-36
2024/02/12 15:04:50;;;;;;;50.97;9.05;;;;;;;;;;5101476;28;20109;-37
2024/02/12 15:07:17;;;;;;;61.00;8.65;;;;;;;;;;5110822;28;20430;-36